sensor_id;sensor_type;location;lat;lon;timestamp;P1;durP1;ratioP1;P2;durP2;ratioP2
51174;SDS011;37240;50.104;20.010;2023-04-15T00:01:47;6.53;;;3.70;;
51174;SDS011;37240;50.104;20.010;2023-04-15T00:06:51;5.15;;;3.08;;
51174;SDS011;37240;50.104;20.010;2023-04-15T00:11:52;6.07;;;3.25;;
51174;SDS011;37240;50.104;20.010;2023-04-15T00:16:52;7.25;;;3.40;;
51174;SDS011;37240;50.104;20.010;2023-04-15T00:21:53;4.38;;;2.58;;
51174;SDS011;37240;50.104;20.010;2023-04-15T00:26:53;4.50;;;2.30;;
51174;SDS011;37240;50.104;20.010;2023-04-15T00:31:54;5.72;;;2.42;;
51174;SDS011;37240;50.104;20.010;2023-04-15T00:36:55;3.33;;;2.35;;
51174;SDS011;37240;50.104;20.010;2023-04-15T00:41:56;4.90;;;3.30;;
51174;SDS011;37240;50.104;20.010;2023-04-15T00:46:57;4.78;;;3.22;;
51174;SDS011;37240;50.104;20.010;2023-04-15T00:51:59;3.83;;;2.55;;
51174;SDS011;37240;50.104;20.010;2023-04-15T00:57:00;4.95;;;2.53;;
51174;SDS011;37240;50.104;20.010;2023-04-15T01:02:00;12.52;;;2.95;;
51174;SDS011;37240;50.104;20.010;2023-04-15T01:07:01;3.03;;;2.30;;
51174;SDS011;37240;50.104;20.010;2023-04-15T01:12:01;4.03;;;2.10;;
51174;SDS011;37240;50.104;20.010;2023-04-15T01:17:02;10.07;;;2.90;;
51174;SDS011;37240;50.104;20.010;2023-04-15T01:22:03;6.18;;;4.03;;
51174;SDS011;37240;50.104;20.010;2023-04-15T01:27:04;8.70;;;3.85;;
51174;SDS011;37240;50.104;20.010;2023-04-15T01:32:04;6.72;;;3.08;;
51174;SDS011;37240;50.104;20.010;2023-04-15T01:37:05;10.60;;;3.72;;
51174;SDS011;37240;50.104;20.010;2023-04-15T01:42:05;5.40;;;3.08;;
51174;SDS011;37240;50.104;20.010;2023-04-15T01:47:06;6.70;;;2.58;;
51174;SDS011;37240;50.104;20.010;2023-04-15T01:52:06;7.55;;;3.42;;
51174;SDS011;37240;50.104;20.010;2023-04-15T01:57:07;13.57;;;3.78;;
51174;SDS011;37240;50.104;20.010;2023-04-15T02:02:08;8.23;;;2.65;;
51174;SDS011;37240;50.104;20.010;2023-04-15T02:07:08;5.47;;;2.50;;
51174;SDS011;37240;50.104;20.010;2023-04-15T02:12:09;7.13;;;2.58;;
51174;SDS011;37240;50.104;20.010;2023-04-15T02:17:09;9.73;;;2.90;;
51174;SDS011;37240;50.104;20.010;2023-04-15T02:22:10;5.13;;;2.65;;
51174;SDS011;37240;50.104;20.010;2023-04-15T02:27:14;4.20;;;2.30;;
51174;SDS011;37240;50.104;20.010;2023-04-15T02:32:15;5.15;;;3.15;;
51174;SDS011;37240;50.104;20.010;2023-04-15T02:37:15;12.00;;;3.55;;
51174;SDS011;37240;50.104;20.010;2023-04-15T02:42:16;14.57;;;4.88;;
51174;SDS011;37240;50.104;20.010;2023-04-15T02:47:16;13.20;;;4.68;;
51174;SDS011;37240;50.104;20.010;2023-04-15T02:52:17;12.60;;;5.20;;
51174;SDS011;37240;50.104;20.010;2023-04-15T02:57:17;8.15;;;3.00;;
51174;SDS011;37240;50.104;20.010;2023-04-15T03:07:56;2.20;;;1.45;;
51174;SDS011;37240;50.104;20.010;2023-04-15T03:12:57;2.72;;;1.35;;
51174;SDS011;37240;50.104;20.010;2023-04-15T03:17:57;4.75;;;1.05;;
51174;SDS011;37240;50.104;20.010;2023-04-15T03:22:58;0.60;;;0.60;;
51174;SDS011;37240;50.104;20.010;2023-04-15T03:27:58;0.63;;;0.63;;
51174;SDS011;37240;50.104;20.010;2023-04-15T03:32:59;0.93;;;0.93;;
51174;SDS011;37240;50.104;20.010;2023-04-15T03:38:00;2.42;;;0.93;;
51174;SDS011;37240;50.104;20.010;2023-04-15T03:43:00;1.25;;;1.00;;
51174;SDS011;37240;50.104;20.010;2023-04-15T03:48:01;2.97;;;2.78;;
51174;SDS011;37240;50.104;20.010;2023-04-15T03:53:01;1.95;;;1.80;;
51174;SDS011;37240;50.104;20.010;2023-04-15T03:58:02;1.85;;;1.30;;
51174;SDS011;37240;50.104;20.010;2023-04-15T04:03:02;1.02;;;0.90;;
51174;SDS011;37240;50.104;20.010;2023-04-15T04:08:03;1.23;;;1.02;;
51174;SDS011;37240;50.104;20.010;2023-04-15T04:13:04;11.40;;;1.42;;
51174;SDS011;37240;50.104;20.010;2023-04-15T04:18:04;1.15;;;0.90;;
51174;SDS011;37240;50.104;20.010;2023-04-15T04:23:05;1.48;;;1.38;;
51174;SDS011;37240;50.104;20.010;2023-04-15T04:28:05;1.55;;;1.25;;
51174;SDS011;37240;50.104;20.010;2023-04-15T04:33:06;1.13;;;1.13;;
51174;SDS011;37240;50.104;20.010;2023-04-15T04:38:07;6.47;;;1.42;;
51174;SDS011;37240;50.104;20.010;2023-04-15T04:43:07;6.00;;;1.60;;
51174;SDS011;37240;50.104;20.010;2023-04-15T04:48:08;3.33;;;2.13;;
51174;SDS011;37240;50.104;20.010;2023-04-15T04:53:08;2.13;;;1.63;;
51174;SDS011;37240;50.104;20.010;2023-04-15T04:58:09;3.83;;;1.50;;
51174;SDS011;37240;50.104;20.010;2023-04-15T05:03:09;1.15;;;1.05;;
51174;SDS011;37240;50.104;20.010;2023-04-15T05:08:10;1.05;;;1.05;;
51174;SDS011;37240;50.104;20.010;2023-04-15T05:13:10;2.22;;;2.03;;
51174;SDS011;37240;50.104;20.010;2023-04-15T05:18:11;1.52;;;1.42;;
51174;SDS011;37240;50.104;20.010;2023-04-15T05:23:11;1.27;;;1.17;;
51174;SDS011;37240;50.104;20.010;2023-04-15T05:28:12;1.98;;;1.20;;
51174;SDS011;37240;50.104;20.010;2023-04-15T05:33:12;6.65;;;1.45;;
51174;SDS011;37240;50.104;20.010;2023-04-15T05:38:13;1.27;;;1.17;;
51174;SDS011;37240;50.104;20.010;2023-04-15T05:43:14;1.55;;;1.27;;
51174;SDS011;37240;50.104;20.010;2023-04-15T05:48:14;1.42;;;1.33;;
51174;SDS011;37240;50.104;20.010;2023-04-15T05:53:15;3.17;;;1.92;;
51174;SDS011;37240;50.104;20.010;2023-04-15T05:58:15;1.85;;;1.75;;
51174;SDS011;37240;50.104;20.010;2023-04-15T06:03:16;5.63;;;3.22;;
51174;SDS011;37240;50.104;20.010;2023-04-15T06:08:16;2.08;;;1.73;;
51174;SDS011;37240;50.104;20.010;2023-04-15T06:13:17;3.00;;;1.58;;
51174;SDS011;37240;50.104;20.010;2023-04-15T06:18:17;1.55;;;1.45;;
51174;SDS011;37240;50.104;20.010;2023-04-15T06:23:18;1.17;;;1.08;;
51174;SDS011;37240;50.104;20.010;2023-04-15T06:28:18;1.98;;;1.38;;
51174;SDS011;37240;50.104;20.010;2023-04-15T06:33:19;1.40;;;1.30;;
51174;SDS011;37240;50.104;20.010;2023-04-15T06:38:19;3.63;;;1.55;;
51174;SDS011;37240;50.104;20.010;2023-04-15T06:43:20;6.32;;;2.13;;
51174;SDS011;37240;50.104;20.010;2023-04-15T06:48:21;2.08;;;1.95;;
51174;SDS011;37240;50.104;20.010;2023-04-15T06:53:21;3.60;;;2.33;;
51174;SDS011;37240;50.104;20.010;2023-04-15T06:58:22;5.47;;;2.92;;
51174;SDS011;37240;50.104;20.010;2023-04-15T07:03:22;5.07;;;2.15;;
51174;SDS011;37240;50.104;20.010;2023-04-15T07:08:23;6.32;;;2.10;;
51174;SDS011;37240;50.104;20.010;2023-04-15T07:13:23;2.80;;;1.90;;
51174;SDS011;37240;50.104;20.010;2023-04-15T07:18:24;3.33;;;1.65;;
51174;SDS011;37240;50.104;20.010;2023-04-15T07:23:25;1.70;;;1.60;;
51174;SDS011;37240;50.104;20.010;2023-04-15T07:28:25;2.95;;;2.00;;
51174;SDS011;37240;50.104;20.010;2023-04-15T07:33:26;6.05;;;2.47;;
51174;SDS011;37240;50.104;20.010;2023-04-15T07:38:27;5.00;;;2.30;;
51174;SDS011;37240;50.104;20.010;2023-04-15T07:43:27;3.45;;;2.10;;
51174;SDS011;37240;50.104;20.010;2023-04-15T07:48:28;2.47;;;1.98;;
51174;SDS011;37240;50.104;20.010;2023-04-15T07:53:28;32.92;;;17.45;;
51174;SDS011;37240;50.104;20.010;2023-04-15T07:58:29;24.58;;;11.75;;
51174;SDS011;37240;50.104;20.010;2023-04-15T08:03:29;4.40;;;3.03;;
51174;SDS011;37240;50.104;20.010;2023-04-15T08:08:30;4.18;;;3.17;;
51174;SDS011;37240;50.104;20.010;2023-04-15T08:13:30;3.80;;;2.13;;
51174;SDS011;37240;50.104;20.010;2023-04-15T08:18:31;2.83;;;2.17;;
51174;SDS011;37240;50.104;20.010;2023-04-15T08:23:31;11.00;;;2.60;;
51174;SDS011;37240;50.104;20.010;2023-04-15T08:28:32;2.08;;;1.95;;
51174;SDS011;37240;50.104;20.010;2023-04-15T08:33:33;3.33;;;2.38;;
51174;SDS011;37240;50.104;20.010;2023-04-15T08:38:34;2.78;;;2.25;;
51174;SDS011;37240;50.104;20.010;2023-04-15T08:43:34;19.83;;;8.90;;
51174;SDS011;37240;50.104;20.010;2023-04-15T08:48:43;16.40;;;10.57;;
51174;SDS011;37240;50.104;20.010;2023-04-15T08:53:46;7.80;;;4.05;;
51174;SDS011;37240;50.104;20.010;2023-04-15T08:58:48;2.10;;;1.88;;
51174;SDS011;37240;50.104;20.010;2023-04-15T09:03:49;19.20;;;11.10;;
51174;SDS011;37240;50.104;20.010;2023-04-15T09:08:51;10.70;;;6.95;;
51174;SDS011;37240;50.104;20.010;2023-04-15T09:13:52;3.20;;;2.10;;
51174;SDS011;37240;50.104;20.010;2023-04-15T09:18:52;1.40;;;1.30;;
51174;SDS011;37240;50.104;20.010;2023-04-15T09:23:54;1.30;;;1.20;;
51174;SDS011;37240;50.104;20.010;2023-04-15T09:29:02;1.33;;;1.20;;
51174;SDS011;37240;50.104;20.010;2023-04-15T09:34:06;2.38;;;1.33;;
51174;SDS011;37240;50.104;20.010;2023-04-15T09:39:07;1.73;;;1.60;;
51174;SDS011;37240;50.104;20.010;2023-04-15T09:44:20;4.15;;;1.48;;
51174;SDS011;37240;50.104;20.010;2023-04-15T09:49:25;38.53;;;19.80;;
51174;SDS011;37240;50.104;20.010;2023-04-15T09:54:32;7.75;;;5.63;;
51174;SDS011;37240;50.104;20.010;2023-04-15T09:59:34;2.45;;;1.90;;
51174;SDS011;37240;50.104;20.010;2023-04-15T10:04:35;3.80;;;1.70;;
51174;SDS011;37240;50.104;20.010;2023-04-15T10:09:39;1.17;;;1.10;;
51174;SDS011;37240;50.104;20.010;2023-04-15T10:14:40;1.83;;;1.67;;
51174;SDS011;37240;50.104;20.010;2023-04-15T10:19:42;2.38;;;1.50;;
51174;SDS011;37240;50.104;20.010;2023-04-15T10:24:44;6.32;;;1.17;;
51174;SDS011;37240;50.104;20.010;2023-04-15T10:29:45;40.30;;;20.95;;
51174;SDS011;37240;50.104;20.010;2023-04-15T10:34:48;2.47;;;2.22;;
51174;SDS011;37240;50.104;20.010;2023-04-15T10:39:50;43.50;;;23.33;;
51174;SDS011;37240;50.104;20.010;2023-04-15T10:44:51;2.42;;;2.22;;
51174;SDS011;37240;50.104;20.010;2023-04-15T10:49:59;2.65;;;1.27;;
51174;SDS011;37240;50.104;20.010;2023-04-15T11:00:14;7.53;;;3.55;;
51174;SDS011;37240;50.104;20.010;2023-04-15T11:05:16;1.88;;;1.75;;
51174;SDS011;37240;50.104;20.010;2023-04-15T11:15:37;4.40;;;2.92;;
51174;SDS011;37240;50.104;20.010;2023-04-15T11:20:45;2.88;;;2.08;;
51174;SDS011;37240;50.104;20.010;2023-04-15T11:25:46;17.25;;;8.55;;
51174;SDS011;37240;50.104;20.010;2023-04-15T11:30:47;3.05;;;2.53;;
51174;SDS011;37240;50.104;20.010;2023-04-15T11:35:47;13.93;;;7.55;;
51174;SDS011;37240;50.104;20.010;2023-04-15T11:40:48;2.58;;;1.92;;
51174;SDS011;37240;50.104;20.010;2023-04-15T11:50:57;4.15;;;2.10;;
51174;SDS011;37240;50.104;20.010;2023-04-15T11:56:07;9.90;;;3.35;;
51174;SDS011;37240;50.104;20.010;2023-04-15T12:01:09;7.88;;;2.65;;
51174;SDS011;37240;50.104;20.010;2023-04-15T12:06:19;6.97;;;1.88;;
51174;SDS011;37240;50.104;20.010;2023-04-15T12:11:27;3.35;;;2.15;;
51174;SDS011;37240;50.104;20.010;2023-04-15T12:16:32;3.28;;;2.50;;
51174;SDS011;37240;50.104;20.010;2023-04-15T12:21:35;2.80;;;2.45;;
51174;SDS011;37240;50.104;20.010;2023-04-15T12:26:50;4.57;;;2.03;;
51174;SDS011;37240;50.104;20.010;2023-04-15T12:36:56;12.65;;;6.85;;
51174;SDS011;37240;50.104;20.010;2023-04-15T12:41:58;2.88;;;2.38;;
51174;SDS011;37240;50.104;20.010;2023-04-15T12:46:58;5.60;;;2.33;;
51174;SDS011;37240;50.104;20.010;2023-04-15T12:52:00;5.32;;;2.00;;
51174;SDS011;37240;50.104;20.010;2023-04-15T12:57:01;13.00;;;7.85;;
51174;SDS011;37240;50.104;20.010;2023-04-15T13:02:02;3.75;;;2.20;;
51174;SDS011;37240;50.104;20.010;2023-04-15T13:07:02;5.97;;;2.03;;
51174;SDS011;37240;50.104;20.010;2023-04-15T13:12:03;1.85;;;1.55;;
51174;SDS011;37240;50.104;20.010;2023-04-15T13:17:04;38.83;;;22.75;;
51174;SDS011;37240;50.104;20.010;2023-04-15T13:22:04;6.05;;;4.35;;
51174;SDS011;37240;50.104;20.010;2023-04-15T13:27:05;1.45;;;1.35;;
51174;SDS011;37240;50.104;20.010;2023-04-15T13:32:05;2.33;;;1.83;;
51174;SDS011;37240;50.104;20.010;2023-04-15T13:37:06;51.38;;;25.17;;
51174;SDS011;37240;50.104;20.010;2023-04-15T13:42:07;4.97;;;2.88;;
51174;SDS011;37240;50.104;20.010;2023-04-15T13:47:07;3.13;;;1.63;;
51174;SDS011;37240;50.104;20.010;2023-04-15T13:52:08;3.30;;;2.15;;
51174;SDS011;37240;50.104;20.010;2023-04-15T13:57:09;4.05;;;1.80;;
51174;SDS011;37240;50.104;20.010;2023-04-15T14:02:09;23.65;;;15.07;;
51174;SDS011;37240;50.104;20.010;2023-04-15T14:07:10;6.03;;;3.53;;
51174;SDS011;37240;50.104;20.010;2023-04-15T14:12:10;9.40;;;6.05;;
51174;SDS011;37240;50.104;20.010;2023-04-15T14:17:11;2.55;;;2.08;;
51174;SDS011;37240;50.104;20.010;2023-04-15T14:22:11;5.22;;;2.92;;
51174;SDS011;37240;50.104;20.010;2023-04-15T14:27:12;3.40;;;2.13;;
51174;SDS011;37240;50.104;20.010;2023-04-15T14:32:13;2.45;;;1.98;;
51174;SDS011;37240;50.104;20.010;2023-04-15T14:37:13;2.40;;;1.85;;
51174;SDS011;37240;50.104;20.010;2023-04-15T14:42:14;5.60;;;2.67;;
51174;SDS011;37240;50.104;20.010;2023-04-15T14:47:14;16.75;;;10.75;;
51174;SDS011;37240;50.104;20.010;2023-04-15T14:52:15;2.00;;;1.63;;
51174;SDS011;37240;50.104;20.010;2023-04-15T14:57:16;3.97;;;2.50;;
51174;SDS011;37240;50.104;20.010;2023-04-15T15:02:16;3.05;;;2.20;;
51174;SDS011;37240;50.104;20.010;2023-04-15T15:07:17;55.08;;;28.40;;
51174;SDS011;37240;50.104;20.010;2023-04-15T15:12:17;8.75;;;4.55;;
51174;SDS011;37240;50.104;20.010;2023-04-15T15:17:18;2.53;;;2.33;;
51174;SDS011;37240;50.104;20.010;2023-04-15T15:22:18;4.85;;;2.10;;
51174;SDS011;37240;50.104;20.010;2023-04-15T15:27:19;5.50;;;2.60;;
51174;SDS011;37240;50.104;20.010;2023-04-15T15:32:20;4.15;;;2.97;;
51174;SDS011;37240;50.104;20.010;2023-04-15T15:37:20;3.78;;;2.72;;
51174;SDS011;37240;50.104;20.010;2023-04-15T15:42:21;40.85;;;22.55;;
51174;SDS011;37240;50.104;20.010;2023-04-15T15:47:22;5.97;;;3.88;;
51174;SDS011;37240;50.104;20.010;2023-04-15T15:52:22;43.75;;;21.67;;
51174;SDS011;37240;50.104;20.010;2023-04-15T15:57:23;8.10;;;4.70;;
51174;SDS011;37240;50.104;20.010;2023-04-15T16:02:23;3.13;;;2.78;;
51174;SDS011;37240;50.104;20.010;2023-04-15T16:07:24;7.78;;;4.38;;
51174;SDS011;37240;50.104;20.010;2023-04-15T16:12:25;8.90;;;5.82;;
51174;SDS011;37240;50.104;20.010;2023-04-15T16:17:26;5.50;;;3.47;;
51174;SDS011;37240;50.104;20.010;2023-04-15T16:22:26;16.95;;;9.57;;
51174;SDS011;37240;50.104;20.010;2023-04-15T16:27:27;5.50;;;2.90;;
51174;SDS011;37240;50.104;20.010;2023-04-15T16:32:27;6.60;;;3.88;;
51174;SDS011;37240;50.104;20.010;2023-04-15T16:37:28;3.30;;;2.85;;
51174;SDS011;37240;50.104;20.010;2023-04-15T16:42:29;3.80;;;2.45;;
51174;SDS011;37240;50.104;20.010;2023-04-15T16:47:30;7.22;;;3.22;;
51174;SDS011;37240;50.104;20.010;2023-04-15T16:52:30;2.75;;;2.50;;
51174;SDS011;37240;50.104;20.010;2023-04-15T16:57:31;3.10;;;2.55;;
51174;SDS011;37240;50.104;20.010;2023-04-15T17:02:32;53.28;;;23.25;;
51174;SDS011;37240;50.104;20.010;2023-04-15T17:07:32;16.88;;;8.52;;
51174;SDS011;37240;50.104;20.010;2023-04-15T17:12:33;3.33;;;2.92;;
51174;SDS011;37240;50.104;20.010;2023-04-15T17:17:34;14.43;;;5.00;;
51174;SDS011;37240;50.104;20.010;2023-04-15T17:22:34;7.95;;;3.15;;
51174;SDS011;37240;50.104;20.010;2023-04-15T17:27:35;4.15;;;2.50;;
51174;SDS011;37240;50.104;20.010;2023-04-15T17:32:35;1.83;;;1.73;;
51174;SDS011;37240;50.104;20.010;2023-04-15T17:37:37;2.35;;;1.42;;
51174;SDS011;37240;50.104;20.010;2023-04-15T17:42:37;28.95;;;14.82;;
51174;SDS011;37240;50.104;20.010;2023-04-15T17:47:38;19.85;;;10.55;;
51174;SDS011;37240;50.104;20.010;2023-04-15T17:52:38;18.67;;;9.65;;
51174;SDS011;37240;50.104;20.010;2023-04-15T17:57:39;9.30;;;5.25;;
51174;SDS011;37240;50.104;20.010;2023-04-15T18:02:39;14.68;;;4.63;;
51174;SDS011;37240;50.104;20.010;2023-04-15T18:07:40;4.47;;;3.40;;
51174;SDS011;37240;50.104;20.010;2023-04-15T18:12:41;3.92;;;2.95;;
51174;SDS011;37240;50.104;20.010;2023-04-15T18:17:41;5.13;;;2.88;;
51174;SDS011;37240;50.104;20.010;2023-04-15T18:22:42;4.55;;;2.97;;
51174;SDS011;37240;50.104;20.010;2023-04-15T18:27:42;5.80;;;2.42;;
51174;SDS011;37240;50.104;20.010;2023-04-15T18:32:43;3.60;;;2.58;;
51174;SDS011;37240;50.104;20.010;2023-04-15T18:37:43;10.63;;;3.00;;
51174;SDS011;37240;50.104;20.010;2023-04-15T18:42:44;4.43;;;2.55;;
51174;SDS011;37240;50.104;20.010;2023-04-15T18:47:44;5.43;;;2.90;;
51174;SDS011;37240;50.104;20.010;2023-04-15T18:52:45;2.97;;;2.72;;
51174;SDS011;37240;50.104;20.010;2023-04-15T18:57:46;13.88;;;5.10;;
51174;SDS011;37240;50.104;20.010;2023-04-15T19:02:46;7.97;;;3.70;;
51174;SDS011;37240;50.104;20.010;2023-04-15T19:07:47;7.35;;;4.55;;
51174;SDS011;37240;50.104;20.010;2023-04-15T19:12:49;9.05;;;4.75;;
51174;SDS011;37240;50.104;20.010;2023-04-15T19:17:49;10.02;;;5.55;;
51174;SDS011;37240;50.104;20.010;2023-04-15T19:22:50;10.13;;;6.07;;
51174;SDS011;37240;50.104;20.010;2023-04-15T19:27:50;13.38;;;6.65;;
51174;SDS011;37240;50.104;20.010;2023-04-15T19:32:51;19.20;;;10.77;;
51174;SDS011;37240;50.104;20.010;2023-04-15T19:37:51;14.98;;;7.80;;
51174;SDS011;37240;50.104;20.010;2023-04-15T19:42:52;19.77;;;7.07;;
51174;SDS011;37240;50.104;20.010;2023-04-15T19:47:53;36.17;;;12.90;;
51174;SDS011;37240;50.104;20.010;2023-04-15T19:52:54;34.85;;;13.43;;
51174;SDS011;37240;50.104;20.010;2023-04-15T19:57:55;57.95;;;27.02;;
51174;SDS011;37240;50.104;20.010;2023-04-15T20:02:55;45.88;;;22.30;;
51174;SDS011;37240;50.104;20.010;2023-04-15T20:07:56;39.50;;;17.92;;
51174;SDS011;37240;50.104;20.010;2023-04-15T20:12:56;37.72;;;16.27;;
51174;SDS011;37240;50.104;20.010;2023-04-15T20:17:57;35.97;;;15.88;;
51174;SDS011;37240;50.104;20.010;2023-04-15T20:22:57;33.38;;;14.88;;
51174;SDS011;37240;50.104;20.010;2023-04-15T20:27:58;32.38;;;14.82;;
51174;SDS011;37240;50.104;20.010;2023-04-15T20:32:59;29.58;;;14.93;;
51174;SDS011;37240;50.104;20.010;2023-04-15T20:37:59;26.77;;;13.68;;
51174;SDS011;37240;50.104;20.010;2023-04-15T20:43:00;32.97;;;14.90;;
51174;SDS011;37240;50.104;20.010;2023-04-15T20:48:00;29.92;;;14.35;;
51174;SDS011;37240;50.104;20.010;2023-04-15T20:53:01;32.03;;;15.02;;
51174;SDS011;37240;50.104;20.010;2023-04-15T20:58:02;33.30;;;16.40;;
51174;SDS011;37240;50.104;20.010;2023-04-15T21:03:02;34.72;;;15.90;;
51174;SDS011;37240;50.104;20.010;2023-04-15T21:08:03;34.15;;;16.02;;
51174;SDS011;37240;50.104;20.010;2023-04-15T21:13:04;44.65;;;16.85;;
51174;SDS011;37240;50.104;20.010;2023-04-15T21:18:04;38.40;;;17.58;;
51174;SDS011;37240;50.104;20.010;2023-04-15T21:23:05;46.75;;;19.00;;
51174;SDS011;37240;50.104;20.010;2023-04-15T21:28:05;56.15;;;20.52;;
51174;SDS011;37240;50.104;20.010;2023-04-15T21:33:06;39.67;;;17.55;;
51174;SDS011;37240;50.104;20.010;2023-04-15T21:38:06;40.45;;;18.33;;
51174;SDS011;37240;50.104;20.010;2023-04-15T21:43:07;42.03;;;17.88;;
51174;SDS011;37240;50.104;20.010;2023-04-15T21:48:08;37.13;;;15.98;;
51174;SDS011;37240;50.104;20.010;2023-04-15T21:53:08;39.38;;;19.17;;
51174;SDS011;37240;50.104;20.010;2023-04-15T21:58:09;37.20;;;17.30;;
51174;SDS011;37240;50.104;20.010;2023-04-15T22:03:09;34.97;;;18.33;;
51174;SDS011;37240;50.104;20.010;2023-04-15T22:08:10;41.20;;;18.92;;
51174;SDS011;37240;50.104;20.010;2023-04-15T22:13:11;41.65;;;18.20;;
51174;SDS011;37240;50.104;20.010;2023-04-15T22:18:11;47.05;;;19.50;;
51174;SDS011;37240;50.104;20.010;2023-04-15T22:23:12;45.53;;;19.95;;
51174;SDS011;37240;50.104;20.010;2023-04-15T22:28:13;41.90;;;20.15;;
51174;SDS011;37240;50.104;20.010;2023-04-15T22:33:13;41.58;;;20.63;;
51174;SDS011;37240;50.104;20.010;2023-04-15T22:38:14;44.28;;;20.27;;
51174;SDS011;37240;50.104;20.010;2023-04-15T22:43:14;51.28;;;21.02;;
51174;SDS011;37240;50.104;20.010;2023-04-15T22:48:15;45.75;;;21.98;;
51174;SDS011;37240;50.104;20.010;2023-04-15T22:53:16;48.33;;;20.42;;
51174;SDS011;37240;50.104;20.010;2023-04-15T22:58:17;47.08;;;22.27;;
51174;SDS011;37240;50.104;20.010;2023-04-15T23:03:18;54.15;;;23.77;;
51174;SDS011;37240;50.104;20.010;2023-04-15T23:08:18;49.13;;;23.70;;
51174;SDS011;37240;50.104;20.010;2023-04-15T23:13:19;57.95;;;25.48;;
51174;SDS011;37240;50.104;20.010;2023-04-15T23:18:19;52.28;;;24.63;;
51174;SDS011;37240;50.104;20.010;2023-04-15T23:23:20;52.03;;;24.88;;
51174;SDS011;37240;50.104;20.010;2023-04-15T23:28:21;53.00;;;25.17;;
51174;SDS011;37240;50.104;20.010;2023-04-15T23:33:22;47.67;;;23.60;;
51174;SDS011;37240;50.104;20.010;2023-04-15T23:38:23;61.58;;;24.33;;
51174;SDS011;37240;50.104;20.010;2023-04-15T23:43:23;52.70;;;24.05;;
51174;SDS011;37240;50.104;20.010;2023-04-15T23:48:24;52.90;;;24.77;;
51174;SDS011;37240;50.104;20.010;2023-04-15T23:53:24;56.40;;;26.95;;
51174;SDS011;37240;50.104;20.010;2023-04-15T23:58:25;52.58;;;24.60;;
